sensor_id;sensor_type;location;lat;lon;timestamp;temperature;humidity
11826;DHT22;5970;48.094;11.496;2023-01-01T00:01:34;9.60;99.90
11826;DHT22;5970;48.094;11.496;2023-01-01T00:04:06;9.70;99.90
11826;DHT22;5970;48.094;11.496;2023-01-01T00:06:36;9.70;99.90
11826;DHT22;5970;48.094;11.496;2023-01-01T00:09:02;9.70;99.90
11826;DHT22;5970;48.094;11.496;2023-01-01T00:11:48;9.70;99.90
11826;DHT22;5970;48.094;11.496;2023-01-01T00:14:14;9.70;99.90
11826;DHT22;5970;48.094;11.496;2023-01-01T00:16:41;9.80;99.90
11826;DHT22;5970;48.094;11.496;2023-01-01T00:19:07;10.90;99.40
11826;DHT22;5970;48.094;11.496;2023-01-01T00:21:34;10.00;98.10
11826;DHT22;5970;48.094;11.496;2023-01-01T00:24:01;10.20;97.70
11826;DHT22;5970;48.094;11.496;2023-01-01T00:26:27;10.30;97.30
11826;DHT22;5970;48.094;11.496;2023-01-01T00:29:00;10.40;97.50
11826;DHT22;5970;48.094;11.496;2023-01-01T00:31:27;10.50;97.50
11826;DHT22;5970;48.094;11.496;2023-01-01T00:33:54;10.40;97.80
11826;DHT22;5970;48.094;11.496;2023-01-01T00:36:21;10.40;97.80
11826;DHT22;5970;48.094;11.496;2023-01-01T00:38:48;10.30;97.60
11826;DHT22;5970;48.094;11.496;2023-01-01T00:41:15;10.20;97.10
11826;DHT22;5970;48.094;11.496;2023-01-01T00:43:42;10.30;96.80
11826;DHT22;5970;48.094;11.496;2023-01-01T00:46:08;10.30;96.70
11826;DHT22;5970;48.094;11.496;2023-01-01T00:48:36;10.30;96.80
11826;DHT22;5970;48.094;11.496;2023-01-01T00:51:03;10.30;97.00
11826;DHT22;5970;48.094;11.496;2023-01-01T00:53:29;10.20;97.50
11826;DHT22;5970;48.094;11.496;2023-01-01T00:55:56;10.20;97.00
11826;DHT22;5970;48.094;11.496;2023-01-01T00:58:23;10.10;96.70
11826;DHT22;5970;48.094;11.496;2023-01-01T01:00:50;10.10;97.10
11826;DHT22;5970;48.094;11.496;2023-01-01T01:03:17;10.00;97.10
11826;DHT22;5970;48.094;11.496;2023-01-01T01:06:06;10.00;97.10
11826;DHT22;5970;48.094;11.496;2023-01-01T01:08:37;9.90;97.50
11826;DHT22;5970;48.094;11.496;2023-01-01T01:13:31;9.80;97.90
11826;DHT22;5970;48.094;11.496;2023-01-01T01:15:57;9.70;97.90
11826;DHT22;5970;48.094;11.496;2023-01-01T01:18:24;9.60;98.20
11826;DHT22;5970;48.094;11.496;2023-01-01T01:20:51;9.60;98.40
11826;DHT22;5970;48.094;11.496;2023-01-01T01:23:18;9.60;98.50
11826;DHT22;5970;48.094;11.496;2023-01-01T01:25:45;9.50;98.60
11826;DHT22;5970;48.094;11.496;2023-01-01T01:28:12;9.40;98.70
11826;DHT22;5970;48.094;11.496;2023-01-01T01:30:39;9.30;98.70
11826;DHT22;5970;48.094;11.496;2023-01-01T01:33:05;9.30;99.00
11826;DHT22;5970;48.094;11.496;2023-01-01T01:35:32;9.30;98.90
11826;DHT22;5970;48.094;11.496;2023-01-01T01:37:59;9.20;99.00
11826;DHT22;5970;48.094;11.496;2023-01-01T01:40:25;9.10;99.00
11826;DHT22;5970;48.094;11.496;2023-01-01T01:42:52;9.10;99.00
11826;DHT22;5970;48.094;11.496;2023-01-01T01:45:18;9.00;99.20
11826;DHT22;5970;48.094;11.496;2023-01-01T01:47:47;9.00;99.20
11826;DHT22;5970;48.094;11.496;2023-01-01T01:53:01;8.90;99.00
11826;DHT22;5970;48.094;11.496;2023-01-01T01:55:30;8.90;99.10
11826;DHT22;5970;48.094;11.496;2023-01-01T01:57:58;8.90;99.00
11826;DHT22;5970;48.094;11.496;2023-01-01T02:00:24;8.80;99.00
11826;DHT22;5970;48.094;11.496;2023-01-01T02:02:52;8.80;99.10
11826;DHT22;5970;48.094;11.496;2023-01-01T02:05:20;8.80;98.90
11826;DHT22;5970;48.094;11.496;2023-01-01T02:07:47;8.70;98.80
11826;DHT22;5970;48.094;11.496;2023-01-01T02:10:14;8.70;98.70
11826;DHT22;5970;48.094;11.496;2023-01-01T02:12:41;8.80;99.00
11826;DHT22;5970;48.094;11.496;2023-01-01T02:15:07;8.80;99.00
11826;DHT22;5970;48.094;11.496;2023-01-01T02:17:51;8.70;98.90
11826;DHT22;5970;48.094;11.496;2023-01-01T02:20:33;8.70;98.90
11826;DHT22;5970;48.094;11.496;2023-01-01T02:30:37;8.70;99.20
11826;DHT22;5970;48.094;11.496;2023-01-01T02:33:10;8.70;99.10
11826;DHT22;5970;48.094;11.496;2023-01-01T02:35:39;8.70;99.20
11826;DHT22;5970;48.094;11.496;2023-01-01T02:38:18;8.60;99.30
11826;DHT22;5970;48.094;11.496;2023-01-01T02:40:47;8.60;99.30
11826;DHT22;5970;48.094;11.496;2023-01-01T02:43:14;8.70;99.40
11826;DHT22;5970;48.094;11.496;2023-01-01T02:45:48;8.60;99.30
11826;DHT22;5970;48.094;11.496;2023-01-01T02:51:01;8.60;99.40
11826;DHT22;5970;48.094;11.496;2023-01-01T02:53:32;8.60;99.50
11826;DHT22;5970;48.094;11.496;2023-01-01T02:58:32;8.60;99.20
11826;DHT22;5970;48.094;11.496;2023-01-01T03:01:31;8.60;99.30
11826;DHT22;5970;48.094;11.496;2023-01-01T03:04:02;8.70;99.20
11826;DHT22;5970;48.094;11.496;2023-01-01T03:06:33;8.70;99.00
11826;DHT22;5970;48.094;11.496;2023-01-01T03:17:17;8.80;98.90
11826;DHT22;5970;48.094;11.496;2023-01-01T03:19:44;8.80;99.10
11826;DHT22;5970;48.094;11.496;2023-01-01T03:22:14;8.80;99.10
11826;DHT22;5970;48.094;11.496;2023-01-01T03:24:50;8.70;99.20
11826;DHT22;5970;48.094;11.496;2023-01-01T03:27:18;8.70;99.10
11826;DHT22;5970;48.094;11.496;2023-01-01T03:29:46;8.60;99.20
11826;DHT22;5970;48.094;11.496;2023-01-01T03:32:15;8.60;99.20
11826;DHT22;5970;48.094;11.496;2023-01-01T03:34:52;8.50;99.30
11826;DHT22;5970;48.094;11.496;2023-01-01T03:37:22;8.50;99.30
11826;DHT22;5970;48.094;11.496;2023-01-01T03:39:50;8.40;99.40
11826;DHT22;5970;48.094;11.496;2023-01-01T03:42:21;8.30;99.60
11826;DHT22;5970;48.094;11.496;2023-01-01T03:44:55;8.30;99.60
11826;DHT22;5970;48.094;11.496;2023-01-01T03:47:23;8.20;99.80
11826;DHT22;5970;48.094;11.496;2023-01-01T03:49:50;8.20;99.70
11826;DHT22;5970;48.094;11.496;2023-01-01T03:54:56;8.20;99.70
11826;DHT22;5970;48.094;11.496;2023-01-01T04:02:44;8.10;99.80
11826;DHT22;5970;48.094;11.496;2023-01-01T04:05:13;8.00;99.90
11826;DHT22;5970;48.094;11.496;2023-01-01T04:07:41;7.90;99.90
11826;DHT22;5970;48.094;11.496;2023-01-01T04:10:09;7.90;99.90
11826;DHT22;5970;48.094;11.496;2023-01-01T04:12:46;7.90;99.90
11826;DHT22;5970;48.094;11.496;2023-01-01T04:15:13;7.90;99.90
11826;DHT22;5970;48.094;11.496;2023-01-01T04:17:40;7.80;99.90
11826;DHT22;5970;48.094;11.496;2023-01-01T04:20:07;8.40;99.90
11826;DHT22;5970;48.094;11.496;2023-01-01T04:22:34;7.70;99.90
11826;DHT22;5970;48.094;11.496;2023-01-01T04:25:01;7.70;99.90
11826;DHT22;5970;48.094;11.496;2023-01-01T04:27:28;7.70;99.90
11826;DHT22;5970;48.094;11.496;2023-01-01T04:29:54;7.70;99.90
11826;DHT22;5970;48.094;11.496;2023-01-01T04:32:21;7.60;99.90
11826;DHT22;5970;48.094;11.496;2023-01-01T04:34:47;7.60;99.90
11826;DHT22;5970;48.094;11.496;2023-01-01T04:37:14;7.50;99.90
11826;DHT22;5970;48.094;11.496;2023-01-01T04:39:41;7.50;99.90
11826;DHT22;5970;48.094;11.496;2023-01-01T04:42:08;7.40;99.90
11826;DHT22;5970;48.094;11.496;2023-01-01T04:44:35;7.30;99.90
11826;DHT22;5970;48.094;11.496;2023-01-01T04:47:01;7.30;99.90
11826;DHT22;5970;48.094;11.496;2023-01-01T04:49:28;7.20;99.90
11826;DHT22;5970;48.094;11.496;2023-01-01T04:51:55;7.20;99.90
11826;DHT22;5970;48.094;11.496;2023-01-01T04:54:21;7.10;99.90
11826;DHT22;5970;48.094;11.496;2023-01-01T04:56:48;7.10;99.90
11826;DHT22;5970;48.094;11.496;2023-01-01T04:59:14;7.10;99.90
11826;DHT22;5970;48.094;11.496;2023-01-01T05:01:41;7.10;99.90
11826;DHT22;5970;48.094;11.496;2023-01-01T05:04:08;7.00;99.90
11826;DHT22;5970;48.094;11.496;2023-01-01T05:06:36;7.00;99.90
11826;DHT22;5970;48.094;11.496;2023-01-01T05:09:03;7.00;99.90
11826;DHT22;5970;48.094;11.496;2023-01-01T05:11:29;6.90;99.90
11826;DHT22;5970;48.094;11.496;2023-01-01T05:13:59;8.30;99.90
11826;DHT22;5970;48.094;11.496;2023-01-01T05:16:30;7.00;99.90
11826;DHT22;5970;48.094;11.496;2023-01-01T05:18:57;7.00;99.90
11826;DHT22;5970;48.094;11.496;2023-01-01T05:21:28;6.90;99.90
11826;DHT22;5970;48.094;11.496;2023-01-01T05:23:57;6.90;99.90
11826;DHT22;5970;48.094;11.496;2023-01-01T05:26:25;6.90;99.90
11826;DHT22;5970;48.094;11.496;2023-01-01T05:28:53;6.90;99.90
11826;DHT22;5970;48.094;11.496;2023-01-01T05:31:21;7.00;99.90
11826;DHT22;5970;48.094;11.496;2023-01-01T05:33:49;7.00;99.90
11826;DHT22;5970;48.094;11.496;2023-01-01T05:36:16;7.00;99.90
11826;DHT22;5970;48.094;11.496;2023-01-01T05:38:44;7.00;99.90
11826;DHT22;5970;48.094;11.496;2023-01-01T05:41:11;7.00;99.90
11826;DHT22;5970;48.094;11.496;2023-01-01T05:43:38;7.00;99.90
11826;DHT22;5970;48.094;11.496;2023-01-01T05:46:06;7.00;99.90
11826;DHT22;5970;48.094;11.496;2023-01-01T05:48:33;7.00;99.90
11826;DHT22;5970;48.094;11.496;2023-01-01T05:51:03;7.00;99.90
11826;DHT22;5970;48.094;11.496;2023-01-01T05:53:29;7.00;99.90
11826;DHT22;5970;48.094;11.496;2023-01-01T05:55:57;7.00;99.90
11826;DHT22;5970;48.094;11.496;2023-01-01T05:58:23;7.10;99.90
11826;DHT22;5970;48.094;11.496;2023-01-01T06:00:50;7.10;99.90
11826;DHT22;5970;48.094;11.496;2023-01-01T06:03:17;7.10;99.90
11826;DHT22;5970;48.094;11.496;2023-01-01T06:05:43;7.30;99.90
11826;DHT22;5970;48.094;11.496;2023-01-01T06:08:10;7.40;99.90
11826;DHT22;5970;48.094;11.496;2023-01-01T06:10:37;7.50;99.90
11826;DHT22;5970;48.094;11.496;2023-01-01T06:13:04;7.70;99.60
11826;DHT22;5970;48.094;11.496;2023-01-01T06:15:38;7.90;99.40
11826;DHT22;5970;48.094;11.496;2023-01-01T06:18:05;8.10;99.40
11826;DHT22;5970;48.094;11.496;2023-01-01T06:20:31;8.10;99.10
11826;DHT22;5970;48.094;11.496;2023-01-01T06:22:58;8.20;98.70
11826;DHT22;5970;48.094;11.496;2023-01-01T06:25:24;8.30;98.80
11826;DHT22;5970;48.094;11.496;2023-01-01T06:27:51;8.20;98.70
11826;DHT22;5970;48.094;11.496;2023-01-01T06:30:18;8.20;98.70
11826;DHT22;5970;48.094;11.496;2023-01-01T06:32:44;8.20;98.70
11826;DHT22;5970;48.094;11.496;2023-01-01T06:35:11;8.20;98.70
11826;DHT22;5970;48.094;11.496;2023-01-01T06:37:37;8.10;98.80
11826;DHT22;5970;48.094;11.496;2023-01-01T06:40:04;8.10;98.90
11826;DHT22;5970;48.094;11.496;2023-01-01T06:42:31;8.00;98.80
11826;DHT22;5970;48.094;11.496;2023-01-01T06:44:59;8.00;99.00
11826;DHT22;5970;48.094;11.496;2023-01-01T06:47:26;8.00;98.80
11826;DHT22;5970;48.094;11.496;2023-01-01T06:49:52;8.00;98.90
11826;DHT22;5970;48.094;11.496;2023-01-01T06:52:19;7.90;98.90
11826;DHT22;5970;48.094;11.496;2023-01-01T06:54:46;7.90;99.10
11826;DHT22;5970;48.094;11.496;2023-01-01T06:57:12;7.80;99.10
11826;DHT22;5970;48.094;11.496;2023-01-01T06:59:39;7.70;99.20
11826;DHT22;5970;48.094;11.496;2023-01-01T07:02:07;7.70;99.40
11826;DHT22;5970;48.094;11.496;2023-01-01T07:04:34;7.60;99.40
11826;DHT22;5970;48.094;11.496;2023-01-01T07:07:01;7.50;99.60
11826;DHT22;5970;48.094;11.496;2023-01-01T07:09:28;7.50;99.60
11826;DHT22;5970;48.094;11.496;2023-01-01T07:11:54;7.50;99.70
11826;DHT22;5970;48.094;11.496;2023-01-01T07:14:21;7.50;99.60
11826;DHT22;5970;48.094;11.496;2023-01-01T07:16:47;7.50;99.70
11826;DHT22;5970;48.094;11.496;2023-01-01T07:19:14;7.50;99.60
11826;DHT22;5970;48.094;11.496;2023-01-01T07:21:51;7.60;99.70
11826;DHT22;5970;48.094;11.496;2023-01-01T07:24:18;7.60;99.70
11826;DHT22;5970;48.094;11.496;2023-01-01T07:26:45;7.60;99.70
11826;DHT22;5970;48.094;11.496;2023-01-01T07:29:12;7.60;99.60
11826;DHT22;5970;48.094;11.496;2023-01-01T07:31:39;7.70;99.50
11826;DHT22;5970;48.094;11.496;2023-01-01T07:34:08;7.70;99.50
11826;DHT22;5970;48.094;11.496;2023-01-01T07:36:35;7.80;99.50
11826;DHT22;5970;48.094;11.496;2023-01-01T07:39:01;7.80;99.50
11826;DHT22;5970;48.094;11.496;2023-01-01T07:41:28;7.80;99.40
11826;DHT22;5970;48.094;11.496;2023-01-01T07:43:54;7.90;99.30
11826;DHT22;5970;48.094;11.496;2023-01-01T07:46:21;7.90;99.30
11826;DHT22;5970;48.094;11.496;2023-01-01T07:48:48;7.90;99.30
11826;DHT22;5970;48.094;11.496;2023-01-01T07:51:14;8.00;99.60
11826;DHT22;5970;48.094;11.496;2023-01-01T07:53:41;7.90;99.60
11826;DHT22;5970;48.094;11.496;2023-01-01T07:56:08;7.90;99.50
11826;DHT22;5970;48.094;11.496;2023-01-01T07:58:37;8.00;99.40
11826;DHT22;5970;48.094;11.496;2023-01-01T08:01:04;8.00;99.40
11826;DHT22;5970;48.094;11.496;2023-01-01T08:03:30;8.10;99.50
11826;DHT22;5970;48.094;11.496;2023-01-01T08:05:57;8.10;99.40
11826;DHT22;5970;48.094;11.496;2023-01-01T08:08:24;8.20;99.60
11826;DHT22;5970;48.094;11.496;2023-01-01T08:10:50;8.30;99.60
11826;DHT22;5970;48.094;11.496;2023-01-01T08:13:17;8.30;99.40
11826;DHT22;5970;48.094;11.496;2023-01-01T08:15:43;8.40;99.40
11826;DHT22;5970;48.094;11.496;2023-01-01T08:18:10;8.50;99.40
11826;DHT22;5970;48.094;11.496;2023-01-01T08:20:37;8.60;99.40
11826;DHT22;5970;48.094;11.496;2023-01-01T08:23:04;8.70;99.30
11826;DHT22;5970;48.094;11.496;2023-01-01T08:25:33;8.80;99.40
11826;DHT22;5970;48.094;11.496;2023-01-01T08:28:00;8.90;99.40
11826;DHT22;5970;48.094;11.496;2023-01-01T08:30:27;9.00;99.30
11826;DHT22;5970;48.094;11.496;2023-01-01T08:32:54;9.00;99.10
11826;DHT22;5970;48.094;11.496;2023-01-01T08:35:20;9.20;99.20
11826;DHT22;5970;48.094;11.496;2023-01-01T08:37:47;9.30;99.10
11826;DHT22;5970;48.094;11.496;2023-01-01T08:40:13;11.40;99.40
11826;DHT22;5970;48.094;11.496;2023-01-01T08:42:40;9.60;98.80
11826;DHT22;5970;48.094;11.496;2023-01-01T08:45:07;9.80;98.70
11826;DHT22;5970;48.094;11.496;2023-01-01T08:47:34;10.00;98.00
11826;DHT22;5970;48.094;11.496;2023-01-01T08:50:00;10.20;97.60
11826;DHT22;5970;48.094;11.496;2023-01-01T08:52:27;10.50;97.20
11826;DHT22;5970;48.094;11.496;2023-01-01T08:54:53;10.80;96.80
11826;DHT22;5970;48.094;11.496;2023-01-01T08:57:20;11.00;96.30
11826;DHT22;5970;48.094;11.496;2023-01-01T08:59:47;11.20;96.20
11826;DHT22;5970;48.094;11.496;2023-01-01T09:02:13;11.40;95.60
11826;DHT22;5970;48.094;11.496;2023-01-01T09:04:40;11.60;95.50
11826;DHT22;5970;48.094;11.496;2023-01-01T09:07:07;11.70;94.90
11826;DHT22;5970;48.094;11.496;2023-01-01T09:09:33;11.90;94.30
11826;DHT22;5970;48.094;11.496;2023-01-01T09:12:00;12.20;93.90
11826;DHT22;5970;48.094;11.496;2023-01-01T09:14:32;12.40;93.80
11826;DHT22;5970;48.094;11.496;2023-01-01T09:16:59;12.60;93.60
11826;DHT22;5970;48.094;11.496;2023-01-01T09:19:26;13.40;93.70
11826;DHT22;5970;48.094;11.496;2023-01-01T09:21:53;12.80;93.60
11826;DHT22;5970;48.094;11.496;2023-01-01T09:24:19;12.80;93.40
11826;DHT22;5970;48.094;11.496;2023-01-01T09:26:46;12.70;93.30
11826;DHT22;5970;48.094;11.496;2023-01-01T09:29:13;12.80;93.70
11826;DHT22;5970;48.094;11.496;2023-01-01T09:31:43;12.80;93.10
11826;DHT22;5970;48.094;11.496;2023-01-01T09:34:10;12.90;93.50
11826;DHT22;5970;48.094;11.496;2023-01-01T09:36:37;13.00;93.20
11826;DHT22;5970;48.094;11.496;2023-01-01T09:39:04;13.10;93.30
11826;DHT22;5970;48.094;11.496;2023-01-01T09:41:36;13.20;93.20
11826;DHT22;5970;48.094;11.496;2023-01-01T09:46:32;13.50;92.90
11826;DHT22;5970;48.094;11.496;2023-01-01T09:49:00;14.00;92.80
11826;DHT22;5970;48.094;11.496;2023-01-01T09:51:29;13.60;91.90
11826;DHT22;5970;48.094;11.496;2023-01-01T09:54:01;13.80;92.00
11826;DHT22;5970;48.094;11.496;2023-01-01T09:56:31;13.90;91.60
11826;DHT22;5970;48.094;11.496;2023-01-01T09:59:00;14.00;91.50
11826;DHT22;5970;48.094;11.496;2023-01-01T10:07:35;14.30;90.60
11826;DHT22;5970;48.094;11.496;2023-01-01T10:14:51;14.40;90.60
11826;DHT22;5970;48.094;11.496;2023-01-01T10:17:31;14.50;90.00
11826;DHT22;5970;48.094;11.496;2023-01-01T10:20:43;14.70;89.80
11826;DHT22;5970;48.094;11.496;2023-01-01T10:22:59;14.80;89.80
11826;DHT22;5970;48.094;11.496;2023-01-01T10:25:28;14.90;88.00
11826;DHT22;5970;48.094;11.496;2023-01-01T10:31:14;15.20;87.70
11826;DHT22;5970;48.094;11.496;2023-01-01T10:33:41;15.30;86.40
11826;DHT22;5970;48.094;11.496;2023-01-01T10:36:09;15.20;86.00
11826;DHT22;5970;48.094;11.496;2023-01-01T10:38:38;15.50;85.70
11826;DHT22;5970;48.094;11.496;2023-01-01T10:41:08;15.60;84.90
11826;DHT22;5970;48.094;11.496;2023-01-01T10:43:44;15.70;85.30
11826;DHT22;5970;48.094;11.496;2023-01-01T10:46:14;15.90;85.00
11826;DHT22;5970;48.094;11.496;2023-01-01T10:48:41;15.90;84.50
11826;DHT22;5970;48.094;11.496;2023-01-01T10:51:28;16.10;84.60
11826;DHT22;5970;48.094;11.496;2023-01-01T10:53:54;16.10;83.30
11826;DHT22;5970;48.094;11.496;2023-01-01T10:56:21;16.00;83.30
11826;DHT22;5970;48.094;11.496;2023-01-01T10:58:49;16.20;83.80
11826;DHT22;5970;48.094;11.496;2023-01-01T11:08:55;16.80;82.50
11826;DHT22;5970;48.094;11.496;2023-01-01T11:11:26;16.80;81.80
11826;DHT22;5970;48.094;11.496;2023-01-01T11:13:54;17.00;82.00
11826;DHT22;5970;48.094;11.496;2023-01-01T11:16:21;17.10;80.80
11826;DHT22;5970;48.094;11.496;2023-01-01T11:18:48;17.20;81.40
11826;DHT22;5970;48.094;11.496;2023-01-01T11:21:20;17.40;80.60
11826;DHT22;5970;48.094;11.496;2023-01-01T11:24:08;17.50;80.20
11826;DHT22;5970;48.094;11.496;2023-01-01T11:26:33;17.40;79.70
11826;DHT22;5970;48.094;11.496;2023-01-01T11:29:01;17.80;80.30
11826;DHT22;5970;48.094;11.496;2023-01-01T11:31:35;17.80;79.50
11826;DHT22;5970;48.094;11.496;2023-01-01T11:34:04;17.80;78.60
11826;DHT22;5970;48.094;11.496;2023-01-01T11:36:32;18.00;78.40
11826;DHT22;5970;48.094;11.496;2023-01-01T11:41:49;18.10;78.10
11826;DHT22;5970;48.094;11.496;2023-01-01T11:47:01;18.70;76.80
11826;DHT22;5970;48.094;11.496;2023-01-01T11:49:28;19.30;75.50
11826;DHT22;5970;48.094;11.496;2023-01-01T11:51:56;19.90;74.70
11826;DHT22;5970;48.094;11.496;2023-01-01T11:54:24;20.60;72.20
11826;DHT22;5970;48.094;11.496;2023-01-01T11:56:57;21.50;70.90
11826;DHT22;5970;48.094;11.496;2023-01-01T11:59:28;22.10;68.60
11826;DHT22;5970;48.094;11.496;2023-01-01T12:01:58;22.40;67.30
11826;DHT22;5970;48.094;11.496;2023-01-01T12:04:32;22.40;65.40
11826;DHT22;5970;48.094;11.496;2023-01-01T12:07:06;22.50;65.10
11826;DHT22;5970;48.094;11.496;2023-01-01T12:09:39;22.10;65.40
11826;DHT22;5970;48.094;11.496;2023-01-01T12:17:11;22.60;64.20
11826;DHT22;5970;48.094;11.496;2023-01-01T12:22:10;23.10;63.50
11826;DHT22;5970;48.094;11.496;2023-01-01T12:24:40;22.20;62.90
11826;DHT22;5970;48.094;11.496;2023-01-01T12:27:15;22.40;63.80
11826;DHT22;5970;48.094;11.496;2023-01-01T12:34:57;21.90;64.80
11826;DHT22;5970;48.094;11.496;2023-01-01T12:40:27;21.40;65.30
11826;DHT22;5970;48.094;11.496;2023-01-01T12:43:06;21.30;65.20
11826;DHT22;5970;48.094;11.496;2023-01-01T12:56:23;20.60;66.10
11826;DHT22;5970;48.094;11.496;2023-01-01T12:58:55;20.40;66.60
11826;DHT22;5970;48.094;11.496;2023-01-01T13:01:24;20.40;67.90
11826;DHT22;5970;48.094;11.496;2023-01-01T13:04:00;20.40;67.50
11826;DHT22;5970;48.094;11.496;2023-01-01T13:06:30;20.30;67.70
11826;DHT22;5970;48.094;11.496;2023-01-01T13:09:00;20.50;67.40
11826;DHT22;5970;48.094;11.496;2023-01-01T13:11:27;21.00;66.80
11826;DHT22;5970;48.094;11.496;2023-01-01T13:13:54;20.90;66.20
11826;DHT22;5970;48.094;11.496;2023-01-01T13:16:31;21.40;64.70
11826;DHT22;5970;48.094;11.496;2023-01-01T13:18:58;21.90;64.50
11826;DHT22;5970;48.094;11.496;2023-01-01T13:21:28;22.30;64.40
11826;DHT22;5970;48.094;11.496;2023-01-01T13:23:56;22.50;65.30
11826;DHT22;5970;48.094;11.496;2023-01-01T13:36:49;21.60;63.10
11826;DHT22;5970;48.094;11.496;2023-01-01T13:42:01;21.40;64.40
11826;DHT22;5970;48.094;11.496;2023-01-01T13:44:28;21.20;64.90
11826;DHT22;5970;48.094;11.496;2023-01-01T13:49:38;20.90;69.30
11826;DHT22;5970;48.094;11.496;2023-01-01T14:03:09;20.70;70.30
11826;DHT22;5970;48.094;11.496;2023-01-01T14:05:38;20.70;71.20
11826;DHT22;5970;48.094;11.496;2023-01-01T14:08:24;20.60;72.00
11826;DHT22;5970;48.094;11.496;2023-01-01T14:10:52;20.20;70.60
11826;DHT22;5970;48.094;11.496;2023-01-01T14:13:18;20.70;75.00
11826;DHT22;5970;48.094;11.496;2023-01-01T14:15:57;19.50;74.70
11826;DHT22;5970;48.094;11.496;2023-01-01T14:21:01;18.70;77.50
11826;DHT22;5970;48.094;11.496;2023-01-01T14:24:02;18.30;77.80
11826;DHT22;5970;48.094;11.496;2023-01-01T14:26:21;18.00;77.10
11826;DHT22;5970;48.094;11.496;2023-01-01T14:28:51;19.00;79.90
11826;DHT22;5970;48.094;11.496;2023-01-01T14:31:19;17.40;78.80
11826;DHT22;5970;48.094;11.496;2023-01-01T14:33:46;17.20;78.00
11826;DHT22;5970;48.094;11.496;2023-01-01T14:36:14;17.00;79.30
11826;DHT22;5970;48.094;11.496;2023-01-01T14:38:42;16.80;79.50
11826;DHT22;5970;48.094;11.496;2023-01-01T14:43:37;16.50;80.00
11826;DHT22;5970;48.094;11.496;2023-01-01T14:46:04;16.30;81.90
11826;DHT22;5970;48.094;11.496;2023-01-01T14:48:36;16.20;82.50
11826;DHT22;5970;48.094;11.496;2023-01-01T14:51:07;16.00;82.30
11826;DHT22;5970;48.094;11.496;2023-01-01T14:53:37;15.80;82.20
11826;DHT22;5970;48.094;11.496;2023-01-01T14:56:03;15.70;82.70
11826;DHT22;5970;48.094;11.496;2023-01-01T14:58:32;15.60;82.60
11826;DHT22;5970;48.094;11.496;2023-01-01T15:03:58;15.40;83.50
11826;DHT22;5970;48.094;11.496;2023-01-01T15:08:52;15.10;84.90
11826;DHT22;5970;48.094;11.496;2023-01-01T15:11:19;14.90;84.40
11826;DHT22;5970;48.094;11.496;2023-01-01T15:14:02;14.90;84.90
11826;DHT22;5970;48.094;11.496;2023-01-01T15:16:29;14.90;85.40
11826;DHT22;5970;48.094;11.496;2023-01-01T15:19:15;14.70;85.40
11826;DHT22;5970;48.094;11.496;2023-01-01T15:21:43;14.60;85.30
11826;DHT22;5970;48.094;11.496;2023-01-01T15:24:11;14.50;86.20
11826;DHT22;5970;48.094;11.496;2023-01-01T15:26:49;14.50;87.10
11826;DHT22;5970;48.094;11.496;2023-01-01T15:29:19;14.40;86.90
11826;DHT22;5970;48.094;11.496;2023-01-01T15:31:49;14.30;87.30
11826;DHT22;5970;48.094;11.496;2023-01-01T15:35:02;14.60;88.20
11826;DHT22;5970;48.094;11.496;2023-01-01T15:37:13;14.00;88.10
11826;DHT22;5970;48.094;11.496;2023-01-01T15:39:46;13.80;88.40
11826;DHT22;5970;48.094;11.496;2023-01-01T15:47:44;13.40;89.20
11826;DHT22;5970;48.094;11.496;2023-01-01T15:53:19;13.20;89.60
11826;DHT22;5970;48.094;11.496;2023-01-01T15:55:44;13.10;89.70
11826;DHT22;5970;48.094;11.496;2023-01-01T15:58:33;12.90;90.00
11826;DHT22;5970;48.094;11.496;2023-01-01T16:00:59;12.80;90.10
11826;DHT22;5970;48.094;11.496;2023-01-01T16:03:27;12.70;90.50
11826;DHT22;5970;48.094;11.496;2023-01-01T16:05:54;12.60;90.50
11826;DHT22;5970;48.094;11.496;2023-01-01T16:08:21;12.50;91.00
11826;DHT22;5970;48.094;11.496;2023-01-01T16:10:48;12.40;90.90
11826;DHT22;5970;48.094;11.496;2023-01-01T16:13:16;12.30;91.20
11826;DHT22;5970;48.094;11.496;2023-01-01T16:18:18;12.00;91.50
11826;DHT22;5970;48.094;11.496;2023-01-01T16:20:45;11.90;91.80
11826;DHT22;5970;48.094;11.496;2023-01-01T16:23:12;11.70;92.20
11826;DHT22;5970;48.094;11.496;2023-01-01T16:25:40;11.60;92.10
11826;DHT22;5970;48.094;11.496;2023-01-01T16:28:07;11.50;92.20
11826;DHT22;5970;48.094;11.496;2023-01-01T16:30:34;11.40;92.40
11826;DHT22;5970;48.094;11.496;2023-01-01T16:33:11;11.30;92.70
11826;DHT22;5970;48.094;11.496;2023-01-01T16:35:39;11.20;92.90
11826;DHT22;5970;48.094;11.496;2023-01-01T16:38:06;11.10;93.10
11826;DHT22;5970;48.094;11.496;2023-01-01T16:40:32;11.00;93.20
11826;DHT22;5970;48.094;11.496;2023-01-01T16:43:03;10.90;93.50
11826;DHT22;5970;48.094;11.496;2023-01-01T16:45:34;10.80;93.60
11826;DHT22;5970;48.094;11.496;2023-01-01T16:48:01;10.70;93.80
11826;DHT22;5970;48.094;11.496;2023-01-01T16:50:28;10.60;93.90
11826;DHT22;5970;48.094;11.496;2023-01-01T16:52:54;10.50;94.00
11826;DHT22;5970;48.094;11.496;2023-01-01T16:55:21;10.50;94.20
11826;DHT22;5970;48.094;11.496;2023-01-01T16:57:47;10.40;94.30
11826;DHT22;5970;48.094;11.496;2023-01-01T17:00:14;10.40;94.50
11826;DHT22;5970;48.094;11.496;2023-01-01T17:02:41;10.30;94.50
11826;DHT22;5970;48.094;11.496;2023-01-01T17:05:08;10.20;94.60
11826;DHT22;5970;48.094;11.496;2023-01-01T17:07:35;10.20;94.70
11826;DHT22;5970;48.094;11.496;2023-01-01T17:10:02;10.10;94.70
11826;DHT22;5970;48.094;11.496;2023-01-01T17:12:30;10.00;94.90
11826;DHT22;5970;48.094;11.496;2023-01-01T17:14:56;10.00;95.00
11826;DHT22;5970;48.094;11.496;2023-01-01T17:17:23;9.90;95.60
11826;DHT22;5970;48.094;11.496;2023-01-01T17:19:49;9.80;95.80
11826;DHT22;5970;48.094;11.496;2023-01-01T17:22:16;9.80;95.90
11826;DHT22;5970;48.094;11.496;2023-01-01T17:24:43;9.80;96.00
11826;DHT22;5970;48.094;11.496;2023-01-01T17:27:09;9.70;96.10
11826;DHT22;5970;48.094;11.496;2023-01-01T17:29:36;9.70;96.10
11826;DHT22;5970;48.094;11.496;2023-01-01T17:32:03;9.70;96.00
11826;DHT22;5970;48.094;11.496;2023-01-01T17:34:29;9.70;96.00
11826;DHT22;5970;48.094;11.496;2023-01-01T17:36:56;9.70;95.90
11826;DHT22;5970;48.094;11.496;2023-01-01T17:39:22;9.80;95.90
11826;DHT22;5970;48.094;11.496;2023-01-01T17:41:49;9.80;95.80
11826;DHT22;5970;48.094;11.496;2023-01-01T17:44:16;9.80;95.80
11826;DHT22;5970;48.094;11.496;2023-01-01T17:46:42;9.90;95.70
11826;DHT22;5970;48.094;11.496;2023-01-01T17:49:10;9.90;95.50
11826;DHT22;5970;48.094;11.496;2023-01-01T17:51:36;9.90;95.80
11826;DHT22;5970;48.094;11.496;2023-01-01T17:54:04;9.90;95.50
11826;DHT22;5970;48.094;11.496;2023-01-01T17:56:35;9.80;95.50
11826;DHT22;5970;48.094;11.496;2023-01-01T17:59:02;9.80;95.60
11826;DHT22;5970;48.094;11.496;2023-01-01T18:01:29;9.70;95.60
11826;DHT22;5970;48.094;11.496;2023-01-01T18:03:58;9.70;95.60
11826;DHT22;5970;48.094;11.496;2023-01-01T18:06:25;9.70;95.60
11826;DHT22;5970;48.094;11.496;2023-01-01T18:08:53;9.70;95.90